aviador You're here:

KC62 Decoded Metar

in
Report Time2018-01-22 11:55:00
UTC Time2018-01-22 11:57:15
Flight Rules vfr VFR
Wind150° at 08 kt
W.Rank150° ranks 20
Current wind is above 150° avg. (6.2)
Visibility9999 m
Phenomena:N/A
Clouds:Scattered 047 Hf
Broken 080 Hf
Overcast 090 Hf
Ceiling8,000 ft
Temp07°C
Dew Point07°C (100% RH)
AAT3.4°C
QNH1008 hPa
Raw Report
KC62 221155Z AUTO 15008KT 7SM SCT047 BKN080 OVC090 07/07 A2978 RMK
AO2 T00750075=

Extra information for KC62:More info

Social comments